Time;durP1;ratioP1;P1;durP2;ratioP2;P2;SDS_P1;SDS_P2;PMS_P1;PMS_P2;Temp;Humidity;BMP_temperature;BMP_pressure;BME280_temperature;BME280_humidity;BME280_pressure;Samples;Min_cycle;Max_cycle;Signal;HPM_P1;HPM_P2
2024/01/03 00:00:44;;;;;;;;;;;8.40;99.90;;;;;;5068759;27;20002;-66
2024/01/03 00:03:11;;;;;;;;;;;8.40;99.90;;;;;;5066775;28;20493;-65
2024/01/03 00:05:42;;;;;;;;;;;8.40;99.90;;;;;;5083452;27;20039;-65
2024/01/03 00:08:16;;;;;;;;;;;8.40;99.90;;;;;;5075991;28;20606;-65
2024/01/03 00:10:57;;;;;;;;;;;8.40;99.90;;;;;;5084718;28;20449;-65
2024/01/03 00:13:29;;;;;;;;;;;8.40;99.90;;;;;;5088414;27;20018;-66
2024/01/03 00:16:01;;;;;;;;;;;8.40;99.90;;;;;;5083653;28;20783;-65
2024/01/03 00:18:32;;;;;;;;;;;8.40;99.90;;;;;;5090805;27;19927;-66
2024/01/03 00:20:58;;;;;;;;;;;8.40;99.90;;;;;;5072138;28;20539;-66
2024/01/03 00:23:28;;;;;;;;;;;8.40;99.90;;;;;;5082565;28;20544;-66
2024/01/03 00:25:53;;;;;;;;;;;8.40;99.90;;;;;;5088569;27;20385;-66
2024/01/03 00:28:19;;;;;;;;;;;8.40;99.90;;;;;;5083781;28;19928;-66
2024/01/03 00:30:44;;;;;;;;;;;8.30;99.90;;;;;;5087267;28;20298;-66
2024/01/03 00:33:10;;;;;;;;;;;8.30;99.90;;;;;;5087208;28;19978;-66
2024/01/03 00:35:35;;;;;;;;;;;8.30;99.90;;;;;;5087159;28;19920;-66
2024/01/03 00:38:01;;;;;;;;;;;8.30;99.90;;;;;;5084753;28;19981;-65
2024/01/03 00:40:33;;;;;;;;;;;8.30;99.90;;;;;;5083796;28;20010;-66
2024/01/03 00:42:58;;;;;;;;;;;8.30;99.90;;;;;;5083771;28;19927;-66
2024/01/03 00:45:24;;;;;;;;;;;8.30;99.90;;;;;;5036610;28;19931;-66
2024/01/03 00:47:49;;;;;;;;;;;8.20;99.90;;;;;;5067037;28;19974;-65
2024/01/03 00:50:16;;;;;;;;;;;8.20;99.90;;;;;;5067769;28;19927;-65
2024/01/03 00:52:41;;;;;;;;;;;8.20;99.90;;;;;;5066309;28;19980;-66
2024/01/03 00:55:08;;;;;;;;;;;8.20;99.90;;;;;;5047608;28;20386;-65
2024/01/03 00:57:34;;;;;;;;;;;8.20;99.90;;;;;;5066878;28;19920;-66
2024/01/03 01:00:00;;;;;;;;;;;8.20;99.90;;;;;;5044026;28;19959;-66
2024/01/03 01:02:25;;;;;;;;;;;8.20;99.90;;;;;;5047852;28;20034;-66
2024/01/03 01:04:51;;;;;;;;;;;8.20;99.90;;;;;;5054925;28;19931;-66
2024/01/03 01:07:17;;;;;;;;;;;8.20;99.90;;;;;;5043013;28;19971;-66
2024/01/03 01:09:42;;;;;;;;;;;8.20;99.90;;;;;;5065078;28;20409;-66
2024/01/03 01:12:08;;;;;;;;;;;8.20;99.90;;;;;;5062455;28;20152;-66
2024/01/03 01:14:34;;;;;;;;;;;8.20;99.90;;;;;;5064662;28;20046;-67
2024/01/03 01:17:00;;;;;;;;;;;8.20;99.90;;;;;;5068234;28;20006;-66
2024/01/03 01:19:25;;;;;;;;;;;8.20;99.90;;;;;;5065502;28;20030;-66
2024/01/03 01:21:51;;;;;;;;;;;8.20;99.90;;;;;;5051549;28;19928;-66
2024/01/03 01:24:16;;;;;;;;;;;8.20;99.90;;;;;;5055792;28;19973;-66
2024/01/03 01:26:42;;;;;;;;;;;8.20;99.90;;;;;;5062859;28;20019;-66
2024/01/03 01:29:08;;;;;;;;;;;8.20;99.90;;;;;;5051723;28;20317;-66
2024/01/03 01:31:33;;;;;;;;;;;8.30;99.90;;;;;;5064472;28;19953;-67
2024/01/03 01:33:59;;;;;;;;;;;8.20;99.90;;;;;;5065449;28;19931;-66
2024/01/03 01:36:24;;;;;;;;;;;8.20;99.90;;;;;;5070934;28;19932;-66
2024/01/03 01:38:50;;;;;;;;;;;8.20;99.90;;;;;;5069947;28;20408;-66
2024/01/03 01:41:15;;;;;;;;;;;8.20;99.90;;;;;;5063942;28;19931;-66
2024/01/03 01:43:41;;;;;;;;;;;8.20;99.90;;;;;;5058478;28;19970;-66
2024/01/03 01:46:08;;;;;;;;;;;8.20;99.90;;;;;;5083651;28;20041;-66
2024/01/03 01:48:34;;;;;;;;;;;8.20;99.90;;;;;;5064502;28;20358;-66
2024/01/03 01:51:00;;;;;;;;;;;8.20;99.90;;;;;;5066065;28;20294;-66
2024/01/03 01:53:25;;;;;;;;;;;8.20;99.90;;;;;;5039467;28;19970;-66
2024/01/03 01:55:51;;;;;;;;;;;8.20;99.90;;;;;;5070336;28;20267;-66
2024/01/03 01:58:18;;;;;;;;;;;8.20;99.90;;;;;;5067950;28;19927;-66
2024/01/03 02:00:44;;;;;;;;;;;8.20;99.90;;;;;;5052246;28;20339;-66
2024/01/03 02:03:10;;;;;;;;;;;8.20;99.90;;;;;;5072081;28;20010;-66
2024/01/03 02:05:37;;;;;;;;;;;8.20;99.90;;;;;;5069976;28;19980;-66
2024/01/03 02:08:06;;;;;;;;;;;8.20;99.90;;;;;;5050051;28;19995;-66
2024/01/03 02:10:32;;;;;;;;;;;8.30;99.90;;;;;;5074851;28;19928;-67
2024/01/03 02:12:58;;;;;;;;;;;8.30;99.90;;;;;;5089545;28;19938;-66
2024/01/03 02:15:23;;;;;;;;;;;8.30;99.90;;;;;;5059415;28;20477;-66
2024/01/03 02:17:49;;;;;;;;;;;8.30;99.90;;;;;;5056693;28;19928;-67
2024/01/03 02:20:15;;;;;;;;;;;8.30;99.90;;;;;;5072600;28;19928;-66
2024/01/03 02:22:42;;;;;;;;;;;8.30;99.90;;;;;;5072267;28;19924;-66
2024/01/03 02:25:10;;;;;;;;;;;8.30;99.90;;;;;;5068803;28;20298;-66
2024/01/03 02:27:39;;;;;;;;;;;8.30;99.90;;;;;;5058708;28;20446;-66
2024/01/03 02:30:05;;;;;;;;;;;8.30;99.90;;;;;;5068855;28;19929;-66
2024/01/03 02:32:30;;;;;;;;;;;8.30;99.90;;;;;;5067452;28;20359;-66
2024/01/03 02:34:56;;;;;;;;;;;8.20;99.90;;;;;;5074712;28;20763;-66
2024/01/03 02:37:23;;;;;;;;;;;8.30;99.90;;;;;;5070455;28;19930;-66
2024/01/03 02:39:49;;;;;;;;;;;8.30;99.90;;;;;;5055094;28;19928;-67
2024/01/03 02:42:15;;;;;;;;;;;8.40;99.90;;;;;;5070433;28;20429;-66
2024/01/03 02:44:40;;;;;;;;;;;8.40;99.90;;;;;;5051763;28;19935;-66
2024/01/03 02:47:06;;;;;;;;;;;8.40;99.90;;;;;;5053530;28;20018;-66
2024/01/03 02:49:31;;;;;;;;;;;8.40;99.90;;;;;;5057271;28;20480;-65
2024/01/03 02:52:00;;;;;;;;;;;8.40;99.90;;;;;;5068075;28;20540;-66
2024/01/03 02:54:26;;;;;;;;;;;8.40;99.90;;;;;;5068369;28;19923;-66
2024/01/03 02:56:53;;;;;;;;;;;8.40;99.90;;;;;;5061960;28;20422;-66
2024/01/03 02:59:19;;;;;;;;;;;8.40;99.90;;;;;;5075497;28;20310;-66
2024/01/03 03:01:45;;;;;;;;;;;8.40;99.90;;;;;;5066094;28;19931;-66
2024/01/03 03:04:10;;;;;;;;;;;8.40;99.90;;;;;;5036202;28;20293;-66
2024/01/03 03:06:36;;;;;;;;;;;8.40;99.90;;;;;;5067118;28;20334;-66
2024/01/03 03:09:02;;;;;;;;;;;8.50;99.90;;;;;;5071100;28;19931;-66
2024/01/03 03:11:28;;;;;;;;;;;8.50;99.90;;;;;;5069893;28;19966;-66
2024/01/03 03:13:53;;;;;;;;;;;8.50;99.90;;;;;;5066690;28;20057;-66
2024/01/03 03:16:19;;;;;;;;;;;8.50;99.90;;;;;;5066720;28;19930;-66
2024/01/03 03:18:45;;;;;;;;;;;8.50;99.90;;;;;;5040492;28;19924;-66
2024/01/03 03:21:10;;;;;;;;;;;8.50;99.90;;;;;;5068586;28;20325;-66
2024/01/03 03:23:36;;;;;;;;;;;8.50;99.90;;;;;;5067127;28;19930;-66
2024/01/03 03:26:04;;;;;;;;;;;8.40;99.90;;;;;;5061540;28;19934;-65
2024/01/03 03:28:30;;;;;;;;;;;8.50;99.90;;;;;;5060244;28;19957;-66
2024/01/03 03:30:56;;;;;;;;;;;8.50;99.90;;;;;;5068615;28;19939;-66
2024/01/03 03:33:21;;;;;;;;;;;8.50;99.90;;;;;;5068235;28;19928;-66
2024/01/03 03:35:47;;;;;;;;;;;8.50;99.90;;;;;;5065652;28;20108;-66
2024/01/03 03:38:12;;;;;;;;;;;8.40;99.90;;;;;;5068003;28;19939;-66
2024/01/03 03:40:38;;;;;;;;;;;8.40;99.90;;;;;;5066724;28;19928;-66
2024/01/03 03:43:04;;;;;;;;;;;8.50;99.90;;;;;;5067825;28;19928;-66
2024/01/03 03:45:31;;;;;;;;;;;8.50;99.90;;;;;;5088424;28;19947;-66
2024/01/03 03:47:57;;;;;;;;;;;8.50;99.90;;;;;;5071056;28;19978;-66
2024/01/03 03:50:22;;;;;;;;;;;8.50;99.90;;;;;;5108057;27;20022;-66
2024/01/03 03:52:48;;;;;;;;;;;8.50;99.90;;;;;;5085472;28;19928;-65
2024/01/03 03:55:15;;;;;;;;;;;8.50;99.90;;;;;;5085536;28;20469;-66
2024/01/03 03:57:40;;;;;;;;;;;8.50;99.90;;;;;;5069067;28;19985;-65
2024/01/03 04:00:07;;;;;;;;;;;8.50;99.90;;;;;;5087094;28;20081;-66
2024/01/03 04:02:32;;;;;;;;;;;8.50;99.90;;;;;;5091703;28;19931;-65
2024/01/03 04:04:58;;;;;;;;;;;8.50;99.90;;;;;;5088234;28;19934;-66
2024/01/03 04:07:24;;;;;;;;;;;8.50;99.90;;;;;;5088974;28;20286;-66
2024/01/03 04:09:49;;;;;;;;;;;8.50;99.90;;;;;;5092368;28;19927;-66
2024/01/03 04:12:15;;;;;;;;;;;8.50;99.90;;;;;;5088003;28;19924;-66
2024/01/03 04:14:40;;;;;;;;;;;8.50;99.90;;;;;;5090517;28;19930;-66
2024/01/03 04:17:06;;;;;;;;;;;8.40;99.90;;;;;;5090286;27;19924;-66
2024/01/03 04:19:32;;;;;;;;;;;8.40;99.90;;;;;;5087439;28;19924;-66
2024/01/03 04:21:57;;;;;;;;;;;8.50;99.90;;;;;;5085047;28;19932;-65
2024/01/03 04:24:23;;;;;;;;;;;8.40;99.90;;;;;;5086498;28;19992;-65
2024/01/03 04:26:48;;;;;;;;;;;8.40;99.90;;;;;;5087632;28;19926;-66
2024/01/03 04:29:14;;;;;;;;;;;8.40;99.90;;;;;;5080345;28;19923;-65
2024/01/03 04:31:40;;;;;;;;;;;8.50;99.90;;;;;;5074943;28;20312;-65
2024/01/03 04:34:05;;;;;;;;;;;8.50;99.90;;;;;;5070656;28;19977;-66
2024/01/03 04:36:31;;;;;;;;;;;8.50;99.90;;;;;;5073516;28;20268;-66
2024/01/03 04:38:56;;;;;;;;;;;8.40;99.90;;;;;;5083088;28;20001;-65
2024/01/03 04:41:22;;;;;;;;;;;8.50;99.90;;;;;;5088013;28;19934;-65
2024/01/03 04:43:47;;;;;;;;;;;8.50;99.90;;;;;;5088075;27;19970;-65
2024/01/03 04:46:13;;;;;;;;;;;8.50;99.90;;;;;;5085160;27;19934;-65
2024/01/03 04:48:39;;;;;;;;;;;8.50;99.90;;;;;;5085410;28;20349;-66
2024/01/03 04:51:04;;;;;;;;;;;8.50;99.90;;;;;;5086109;28;19935;-65
2024/01/03 04:53:31;;;;;;;;;;;8.50;99.90;;;;;;5088705;28;20008;-65
2024/01/03 04:55:56;;;;;;;;;;;8.50;99.90;;;;;;5082340;28;20010;-65
2024/01/03 04:58:22;;;;;;;;;;;8.50;99.90;;;;;;5087580;28;20207;-66
2024/01/03 05:00:48;;;;;;;;;;;8.50;99.90;;;;;;5105452;27;19931;-66
2024/01/03 05:03:13;;;;;;;;;;;8.50;99.90;;;;;;5086439;28;20400;-65
2024/01/03 05:05:39;;;;;;;;;;;8.50;99.90;;;;;;5089531;28;19927;-65
2024/01/03 05:08:05;;;;;;;;;;;8.50;99.90;;;;;;5085248;28;20343;-65
2024/01/03 05:10:30;;;;;;;;;;;8.50;99.90;;;;;;5093119;28;20404;-65
2024/01/03 05:12:56;;;;;;;;;;;8.50;99.90;;;;;;5087564;28;19946;-65
2024/01/03 05:15:21;;;;;;;;;;;8.50;99.90;;;;;;5083552;28;19931;-65
2024/01/03 05:17:47;;;;;;;;;;;8.60;99.90;;;;;;5084519;28;20354;-65
2024/01/03 05:20:13;;;;;;;;;;;8.50;99.90;;;;;;5086224;28;19923;-65
2024/01/03 05:22:38;;;;;;;;;;;8.60;99.90;;;;;;5069132;28;19928;-65
2024/01/03 05:25:06;;;;;;;;;;;8.60;99.90;;;;;;5093016;28;20373;-65
2024/01/03 05:27:31;;;;;;;;;;;8.60;99.90;;;;;;5089909;28;19923;-66
2024/01/03 05:29:57;;;;;;;;;;;8.60;99.90;;;;;;5077971;27;20463;-65
2024/01/03 05:32:23;;;;;;;;;;;8.60;99.90;;;;;;5087509;27;20814;-65
2024/01/03 05:34:48;;;;;;;;;;;8.60;99.90;;;;;;5093614;27;19968;-66
2024/01/03 05:37:14;;;;;;;;;;;8.60;99.90;;;;;;5091986;27;19981;-65
2024/01/03 05:39:39;;;;;;;;;;;8.60;99.90;;;;;;5079373;27;19974;-65
2024/01/03 05:42:05;;;;;;;;;;;8.60;99.90;;;;;;5075753;27;20226;-65
2024/01/03 05:44:31;;;;;;;;;;;8.60;99.90;;;;;;5091303;27;19963;-65
2024/01/03 05:46:57;;;;;;;;;;;8.60;99.90;;;;;;5090509;28;19930;-66
2024/01/03 05:49:22;;;;;;;;;;;8.50;99.90;;;;;;5071158;28;20364;-66
2024/01/03 05:51:48;;;;;;;;;;;8.50;99.90;;;;;;5071765;27;19927;-66
2024/01/03 05:54:13;;;;;;;;;;;8.50;99.90;;;;;;5085404;27;19923;-66
2024/01/03 05:56:39;;;;;;;;;;;8.50;99.90;;;;;;5085574;28;19988;-66
2024/01/03 05:59:05;;;;;;;;;;;8.40;99.90;;;;;;5075669;27;19980;-66
2024/01/03 06:01:30;;;;;;;;;;;8.40;99.90;;;;;;5071728;27;20026;-66
2024/01/03 06:03:56;;;;;;;;;;;8.40;99.90;;;;;;5074885;28;20544;-66
2024/01/03 06:06:21;;;;;;;;;;;8.40;99.90;;;;;;5072320;27;19924;-66
2024/01/03 06:08:47;;;;;;;;;;;8.30;99.90;;;;;;5086796;27;20010;-65
2024/01/03 06:11:13;;;;;;;;;;;8.30;99.90;;;;;;5085437;28;19996;-66
2024/01/03 06:13:38;;;;;;;;;;;8.40;99.90;;;;;;5088658;27;20595;-66
2024/01/03 06:16:04;;;;;;;;;;;8.40;99.90;;;;;;5084913;27;19927;-66
2024/01/03 06:18:30;;;;;;;;;;;8.40;99.90;;;;;;5085830;27;19928;-65
2024/01/03 06:20:56;;;;;;;;;;;8.40;99.90;;;;;;5087463;27;20354;-66
2024/01/03 06:23:21;;;;;;;;;;;8.50;99.90;;;;;;5087746;27;20112;-65
2024/01/03 06:25:47;;;;;;;;;;;8.50;99.90;;;;;;5072636;27;20433;-65
2024/01/03 06:28:12;;;;;;;;;;;8.50;99.90;;;;;;5084333;28;20030;-66
2024/01/03 06:30:38;;;;;;;;;;;8.60;99.90;;;;;;5085041;27;19934;-66
2024/01/03 06:33:05;;;;;;;;;;;8.60;99.90;;;;;;5086826;27;19934;-66
2024/01/03 06:35:32;;;;;;;;;;;8.60;99.90;;;;;;5077478;28;19924;-66
2024/01/03 06:37:58;;;;;;;;;;;8.60;99.90;;;;;;5078249;27;19945;-65
2024/01/03 06:40:23;;;;;;;;;;;8.60;99.90;;;;;;5097910;27;19928;-66
2024/01/03 06:42:49;;;;;;;;;;;8.60;99.90;;;;;;5082278;28;20339;-65
2024/01/03 06:45:14;;;;;;;;;;;8.60;99.90;;;;;;5097354;27;19928;-65
2024/01/03 06:47:41;;;;;;;;;;;8.60;99.90;;;;;;5064952;28;20030;-65
2024/01/03 06:50:07;;;;;;;;;;;8.60;99.90;;;;;;5071138;27;19924;-65
2024/01/03 06:52:32;;;;;;;;;;;8.60;99.90;;;;;;5086723;27;19924;-65
2024/01/03 06:54:58;;;;;;;;;;;8.60;99.90;;;;;;5087148;27;19927;-65
2024/01/03 06:57:24;;;;;;;;;;;8.60;99.90;;;;;;5084473;27;19924;-65
2024/01/03 06:59:49;;;;;;;;;;;8.70;99.90;;;;;;5088445;28;20418;-65
2024/01/03 07:02:15;;;;;;;;;;;8.70;99.90;;;;;;5080522;27;20398;-65
2024/01/03 07:04:40;;;;;;;;;;;8.70;99.90;;;;;;5071186;27;19927;-65
2024/01/03 07:07:06;;;;;;;;;;;8.70;99.90;;;;;;5068503;28;19924;-65
2024/01/03 07:09:32;;;;;;;;;;;8.70;99.90;;;;;;5086106;28;19934;-65
2024/01/03 07:11:57;;;;;;;;;;;8.70;99.90;;;;;;5086924;27;20318;-65
2024/01/03 07:14:23;;;;;;;;;;;8.70;99.90;;;;;;5070263;28;19927;-65
2024/01/03 07:16:49;;;;;;;;;;;8.70;99.90;;;;;;5091388;27;19978;-65
2024/01/03 07:19:14;;;;;;;;;;;8.70;99.90;;;;;;5074716;28;19962;-66
2024/01/03 07:21:40;;;;;;;;;;;8.70;99.90;;;;;;5088183;27;20181;-66
2024/01/03 07:24:05;;;;;;;;;;;8.70;99.90;;;;;;5088427;28;19996;-65
2024/01/03 07:26:31;;;;;;;;;;;8.70;99.90;;;;;;5088721;27;19923;-65
2024/01/03 07:28:57;;;;;;;;;;;8.70;99.90;;;;;;5087348;27;19935;-66
2024/01/03 07:31:22;;;;;;;;;;;8.70;99.90;;;;;;5081114;27;20388;-66
2024/01/03 07:33:48;;;;;;;;;;;8.70;99.90;;;;;;5072432;28;19928;-66
2024/01/03 07:36:13;;;;;;;;;;;8.60;99.90;;;;;;5086382;28;19930;-65
2024/01/03 07:38:39;;;;;;;;;;;8.60;99.90;;;;;;5084629;27;19924;-66
2024/01/03 07:41:04;;;;;;;;;;;8.60;99.90;;;;;;5086306;27;19931;-66
2024/01/03 07:43:30;;;;;;;;;;;8.60;99.90;;;;;;5081374;28;19997;-66
2024/01/03 07:45:57;;;;;;;;;;;8.60;99.90;;;;;;5064629;28;20014;-66
2024/01/03 07:48:23;;;;;;;;;;;8.60;99.90;;;;;;5062083;28;20267;-65
2024/01/03 07:50:49;;;;;;;;;;;8.60;99.90;;;;;;5050970;28;19924;-65
2024/01/03 07:53:15;;;;;;;;;;;8.60;99.90;;;;;;5052726;28;19931;-66
2024/01/03 07:55:40;;;;;;;;;;;8.60;99.90;;;;;;5070959;28;19928;-66
2024/01/03 07:58:06;;;;;;;;;;;8.60;99.90;;;;;;5059951;28;20012;-66
2024/01/03 08:00:32;;;;;;;;;;;8.60;99.90;;;;;;5065130;28;19935;-65
2024/01/03 08:02:57;;;;;;;;;;;8.60;99.90;;;;;;5077908;28;19932;-66
2024/01/03 08:05:23;;;;;;;;;;;8.60;99.90;;;;;;5052993;28;20019;-65
2024/01/03 08:07:49;;;;;;;;;;;8.60;99.90;;;;;;5069695;28;19935;-66
2024/01/03 08:10:15;;;;;;;;;;;8.50;99.90;;;;;;5068983;28;19939;-66
2024/01/03 08:12:41;;;;;;;;;;;8.60;99.90;;;;;;5069909;28;19934;-65
2024/01/03 08:15:07;;;;;;;;;;;8.60;99.90;;;;;;5077761;28;19985;-65
2024/01/03 08:17:32;;;;;;;;;;;8.60;99.90;;;;;;5067909;28;19924;-65
2024/01/03 08:19:58;;;;;;;;;;;8.60;99.90;;;;;;5055331;28;19993;-66
2024/01/03 08:22:23;;;;;;;;;;;8.60;99.90;;;;;;5053979;28;19986;-65
2024/01/03 08:24:49;;;;;;;;;;;8.60;99.90;;;;;;5070808;28;19935;-65
2024/01/03 08:27:15;;;;;;;;;;;8.60;99.90;;;;;;5075341;28;19928;-66
2024/01/03 08:29:40;;;;;;;;;;;8.60;99.90;;;;;;5069152;28;20427;-65
2024/01/03 08:32:06;;;;;;;;;;;8.60;99.90;;;;;;5071958;28;19935;-66
2024/01/03 08:34:32;;;;;;;;;;;8.60;99.90;;;;;;5034856;28;19923;-65
2024/01/03 08:36:57;;;;;;;;;;;8.60;99.90;;;;;;5068813;28;19935;-65
2024/01/03 08:39:23;;;;;;;;;;;8.60;99.90;;;;;;5047238;28;19924;-65
2024/01/03 08:41:49;;;;;;;;;;;8.60;99.90;;;;;;5068531;28;20075;-65
2024/01/03 08:44:14;;;;;;;;;;;8.70;99.90;;;;;;5079069;27;20035;-66
2024/01/03 08:46:40;;;;;;;;;;;8.60;99.90;;;;;;5089950;28;19987;-65
2024/01/03 08:49:06;;;;;;;;;;;8.60;99.90;;;;;;5073162;27;19928;-65
2024/01/03 08:51:32;;;;;;;;;;;8.60;99.90;;;;;;5089545;28;19927;-65
2024/01/03 08:53:58;;;;;;;;;;;8.60;99.90;;;;;;5087305;28;19927;-64
2024/01/03 08:56:24;;;;;;;;;;;8.60;99.90;;;;;;5081964;28;19974;-65
2024/01/03 08:58:49;;;;;;;;;;;8.60;99.90;;;;;;5098727;28;19923;-65
2024/01/03 09:01:16;;;;;;;;;;;8.60;99.90;;;;;;5089789;28;19931;-65
2024/01/03 09:03:42;;;;;;;;;;;8.50;99.90;;;;;;5093770;28;19931;-65
2024/01/03 09:06:07;;;;;;;;;;;8.50;99.90;;;;;;5098807;28;20394;-65
2024/01/03 09:08:33;;;;;;;;;;;8.50;99.90;;;;;;5090237;28;19931;-65
2024/01/03 09:10:58;;;;;;;;;;;8.60;99.90;;;;;;5095565;28;19924;-65
2024/01/03 09:13:24;;;;;;;;;;;8.50;99.90;;;;;;5092820;28;20014;-65
2024/01/03 09:15:50;;;;;;;;;;;8.60;99.90;;;;;;5072691;28;19928;-65
2024/01/03 09:18:16;;;;;;;;;;;8.60;99.90;;;;;;5098159;28;20641;-65
2024/01/03 09:20:41;;;;;;;;;;;8.70;99.90;;;;;;5091902;28;19920;-65
2024/01/03 09:23:07;;;;;;;;;;;8.70;99.90;;;;;;5097891;28;20346;-65
2024/01/03 09:25:33;;;;;;;;;;;8.70;99.90;;;;;;5078358;28;19931;-65
2024/01/03 09:27:58;;;;;;;;;;;8.70;99.90;;;;;;5091819;28;19969;-65
2024/01/03 09:30:24;;;;;;;;;;;8.80;99.90;;;;;;5096740;28;19932;-65
2024/01/03 09:32:50;;;;;;;;;;;8.80;99.90;;;;;;5099433;28;20365;-65
2024/01/03 09:35:15;;;;;;;;;;;8.80;99.90;;;;;;5087671;28;19924;-65
2024/01/03 09:37:41;;;;;;;;;;;8.80;99.90;;;;;;5074050;28;20436;-65
2024/01/03 09:40:09;;;;;;;;;;;8.80;99.90;;;;;;5069847;28;20387;-65
2024/01/03 09:42:35;;;;;;;;;;;8.80;99.90;;;;;;5087727;28;19935;-65
2024/01/03 09:45:04;;;;;;;;;;;8.80;99.90;;;;;;5092023;28;19935;-65
2024/01/03 09:47:30;;;;;;;;;;;8.70;99.90;;;;;;5070942;28;19932;-65
2024/01/03 09:49:55;;;;;;;;;;;8.70;99.90;;;;;;5106365;27;19924;-65
2024/01/03 09:52:22;;;;;;;;;;;8.70;99.90;;;;;;5085742;28;20042;-66
2024/01/03 09:54:47;;;;;;;;;;;8.60;99.90;;;;;;5085568;28;20385;-65
2024/01/03 09:57:14;;;;;;;;;;;8.60;99.90;;;;;;5081908;28;19924;-65
2024/01/03 09:59:40;;;;;;;;;;;8.70;99.90;;;;;;5087445;28;19931;-65
2024/01/03 10:02:06;;;;;;;;;;;8.70;99.90;;;;;;5087956;28;20733;-65
2024/01/03 10:04:33;;;;;;;;;;;8.70;99.90;;;;;;5090923;28;20003;-65
2024/01/03 10:06:59;;;;;;;;;;;8.80;99.90;;;;;;5073328;28;19928;-65
2024/01/03 10:09:34;;;;;;;;;;;8.70;99.90;;;;;;5054280;28;19953;-65
2024/01/03 10:12:13;;;;;;;;;;;8.70;99.90;;;;;;5081674;28;19936;-65
2024/01/03 10:14:40;;;;;;;;;;;8.70;99.90;;;;;;5072342;28;19924;-66
2024/01/03 10:17:09;;;;;;;;;;;8.80;99.90;;;;;;5082045;28;20050;-65
2024/01/03 10:19:35;;;;;;;;;;;8.80;99.90;;;;;;5078807;27;19972;-65
2024/01/03 10:22:02;;;;;;;;;;;8.70;99.90;;;;;;5085754;27;20133;-65
2024/01/03 10:24:28;;;;;;;;;;;8.80;99.90;;;;;;5083120;27;20412;-65
2024/01/03 10:26:54;;;;;;;;;;;8.90;99.90;;;;;;5086936;27;20182;-65
2024/01/03 10:29:20;;;;;;;;;;;8.90;99.90;;;;;;5085466;28;19934;-65
2024/01/03 10:31:49;;;;;;;;;;;8.90;99.90;;;;;;5072551;27;19931;-65
2024/01/03 10:34:22;;;;;;;;;;;8.90;99.90;;;;;;5085744;28;19978;-65
2024/01/03 10:36:49;;;;;;;;;;;8.90;99.90;;;;;;5090037;27;19980;-65
2024/01/03 10:39:16;;;;;;;;;;;8.90;99.90;;;;;;5084157;27;19978;-65
2024/01/03 10:41:45;;;;;;;;;;;8.80;99.90;;;;;;5087809;28;19928;-65
2024/01/03 10:44:12;;;;;;;;;;;8.80;99.90;;;;;;5074498;27;20585;-65
2024/01/03 10:46:40;;;;;;;;;;;8.80;99.90;;;;;;5091391;28;20666;-66
2024/01/03 10:49:07;;;;;;;;;;;8.80;99.90;;;;;;5086280;28;20036;-65
2024/01/03 10:51:37;;;;;;;;;;;8.70;99.90;;;;;;5089706;27;19928;-65
2024/01/03 10:54:03;;;;;;;;;;;8.70;99.90;;;;;;5086062;27;19928;-65
2024/01/03 10:56:30;;;;;;;;;;;8.70;99.90;;;;;;5074371;28;20026;-65
2024/01/03 10:58:56;;;;;;;;;;;8.70;99.90;;;;;;5086572;28;19931;-65
2024/01/03 11:01:44;;;;;;;;;;;8.80;99.90;;;;;;5084560;28;19932;-65
2024/01/03 11:04:31;;;;;;;;;;;8.80;99.90;;;;;;5083584;28;19931;-65
2024/01/03 11:07:17;;;;;;;;;;;8.90;99.90;;;;;;5085601;27;20405;-65
2024/01/03 11:09:46;;;;;;;;;;;8.90;99.90;;;;;;5088065;27;20003;-65
2024/01/03 11:12:15;;;;;;;;;;;9.00;99.90;;;;;;5087970;27;19930;-65
2024/01/03 11:14:41;;;;;;;;;;;9.10;99.90;;;;;;5077140;28;19931;-65
2024/01/03 11:17:11;;;;;;;;;;;9.20;99.90;;;;;;5087985;27;19923;-65
2024/01/03 11:19:38;;;;;;;;;;;9.30;99.90;;;;;;5087893;28;19923;-65
2024/01/03 11:22:04;;;;;;;;;;;9.40;99.90;;;;;;5073315;28;19967;-65
2024/01/03 11:24:33;;;;;;;;;;;9.40;99.90;;;;;;5088198;27;20031;-65
2024/01/03 11:27:03;;;;;;;;;;;9.60;99.90;;;;;;5083271;28;19931;-65
2024/01/03 11:29:35;;;;;;;;;;;9.60;99.90;;;;;;5088043;28;19927;-65
2024/01/03 11:32:05;;;;;;;;;;;9.60;99.90;;;;;;5089465;28;20483;-65
2024/01/03 11:34:37;;;;;;;;;;;9.70;99.90;;;;;;5083525;27;20032;-65
2024/01/03 11:37:07;;;;;;;;;;;9.70;99.90;;;;;;5074329;28;19927;-65
2024/01/03 11:39:34;;;;;;;;;;;9.80;99.90;;;;;;5092828;28;19930;-65
2024/01/03 11:42:00;;;;;;;;;;;9.80;99.90;;;;;;5086491;28;19939;-65
2024/01/03 11:44:26;;;;;;;;;;;9.80;99.90;;;;;;5061311;28;20374;-64
2024/01/03 11:47:04;;;;;;;;;;;9.80;99.90;;;;;;5070108;28;19974;-65
2024/01/03 11:49:30;;;;;;;;;;;9.80;99.90;;;;;;5051443;28;19927;-65
2024/01/03 11:51:57;;;;;;;;;;;9.90;99.90;;;;;;5051343;28;19924;-65
2024/01/03 11:54:26;;;;;;;;;;;9.90;99.90;;;;;;5067348;28;21353;-65
2024/01/03 11:56:56;;;;;;;;;;;9.90;99.90;;;;;;5067513;28;19924;-64
2024/01/03 11:59:22;;;;;;;;;;;9.90;99.90;;;;;;5051993;28;20014;-65
2024/01/03 12:01:57;;;;;;;;;;;9.80;99.90;;;;;;5032845;28;19954;-65
2024/01/03 12:04:23;;;;;;;;;;;9.80;99.90;;;;;;5073725;28;20010;-64
2024/01/03 12:06:49;;;;;;;;;;;9.80;99.90;;;;;;5066929;28;19928;-65
2024/01/03 12:09:16;;;;;;;;;;;9.70;99.90;;;;;;5051300;28;20485;-65
2024/01/03 12:11:47;;;;;;;;;;;9.70;99.90;;;;;;5069761;28;20388;-64
2024/01/03 12:14:16;;;;;;;;;;;9.60;99.90;;;;;;5055776;28;20061;-65
2024/01/03 12:16:49;;;;;;;;;;;9.50;99.90;;;;;;5056449;28;19927;-65
2024/01/03 12:19:41;;;;;;;;;;;9.50;99.90;;;;;;5068436;28;19982;-64
2024/01/03 12:22:07;;;;;;;;;;;9.50;99.90;;;;;;5063992;28;19986;-65
2024/01/03 12:24:40;;;;;;;;;;;9.50;99.90;;;;;;5068966;28;20034;-65
2024/01/03 12:27:05;;;;;;;;;;;9.50;99.90;;;;;;5071534;28;20010;-64
2024/01/03 12:29:33;;;;;;;;;;;9.50;99.90;;;;;;5070713;28;19924;-64
2024/01/03 12:32:12;;;;;;;;;;;9.50;99.90;;;;;;5070026;28;19984;-64
2024/01/03 12:34:37;;;;;;;;;;;9.50;99.90;;;;;;5074283;28;20381;-64
2024/01/03 12:37:06;;;;;;;;;;;9.50;99.90;;;;;;5100057;28;20444;-64
2024/01/03 12:39:38;;;;;;;;;;;9.50;99.90;;;;;;5073946;28;20352;-64
2024/01/03 12:42:10;;;;;;;;;;;9.50;99.90;;;;;;5064985;28;20004;-65
2024/01/03 12:44:37;;;;;;;;;;;9.50;99.90;;;;;;5079586;28;19936;-65
2024/01/03 12:47:03;;;;;;;;;;;9.50;99.90;;;;;;5078328;28;19931;-64
2024/01/03 12:49:29;;;;;;;;;;;9.50;99.90;;;;;;5088975;28;19923;-64
2024/01/03 12:51:56;;;;;;;;;;;9.60;99.90;;;;;;5097730;28;19930;-64
2024/01/03 12:54:21;;;;;;;;;;;9.60;99.90;;;;;;5089435;28;20388;-65
2024/01/03 12:56:47;;;;;;;;;;;9.60;99.90;;;;;;5091296;28;19928;-64
2024/01/03 12:59:13;;;;;;;;;;;9.50;99.90;;;;;;5092038;28;20054;-65
2024/01/03 13:01:38;;;;;;;;;;;9.50;99.90;;;;;;5087586;28;19938;-64
2024/01/03 13:04:04;;;;;;;;;;;9.50;99.90;;;;;;5093965;28;20289;-65
2024/01/03 13:06:29;;;;;;;;;;;9.50;99.90;;;;;;5087588;28;20429;-64
2024/01/03 13:08:55;;;;;;;;;;;9.50;99.90;;;;;;5105418;28;21491;-64
2024/01/03 13:11:21;;;;;;;;;;;9.50;99.90;;;;;;5073328;28;19924;-64
2024/01/03 13:13:47;;;;;;;;;;;9.60;99.90;;;;;;5082767;28;20382;-64
2024/01/03 13:16:12;;;;;;;;;;;9.60;99.90;;;;;;5083846;28;20344;-64
2024/01/03 13:18:38;;;;;;;;;;;9.60;99.90;;;;;;5078830;28;20014;-64
2024/01/03 13:21:04;;;;;;;;;;;9.70;99.90;;;;;;5091321;28;19923;-64
2024/01/03 13:23:29;;;;;;;;;;;9.60;99.90;;;;;;5077632;28;20022;-64
2024/01/03 13:25:55;;;;;;;;;;;9.70;99.90;;;;;;5090053;28;19924;-64
2024/01/03 13:28:20;;;;;;;;;;;9.80;99.90;;;;;;5092179;28;20313;-64
2024/01/03 13:30:46;;;;;;;;;;;9.80;99.90;;;;;;5088279;28;19961;-64
2024/01/03 13:33:12;;;;;;;;;;;9.90;99.90;;;;;;5095015;28;19931;-64
2024/01/03 13:35:37;;;;;;;;;;;9.90;99.90;;;;;;5089590;28;20387;-64
2024/01/03 13:38:03;;;;;;;;;;;9.80;99.90;;;;;;5094840;28;20432;-64
2024/01/03 13:40:29;;;;;;;;;;;9.80;99.90;;;;;;5052653;28;19973;-64
2024/01/03 13:42:55;;;;;;;;;;;9.70;99.90;;;;;;5070448;28;20024;-64
2024/01/03 13:45:21;;;;;;;;;;;9.70;99.90;;;;;;5079797;28;19931;-64
2024/01/03 13:47:46;;;;;;;;;;;9.70;99.90;;;;;;5081342;28;19928;-64
2024/01/03 13:50:12;;;;;;;;;;;9.60;99.90;;;;;;5081979;27;19946;-64
2024/01/03 13:52:39;;;;;;;;;;;9.60;99.90;;;;;;5091402;28;20405;-64
2024/01/03 13:55:05;;;;;;;;;;;9.60;99.90;;;;;;5086597;28;19931;-64
2024/01/03 13:57:31;;;;;;;;;;;9.60;99.90;;;;;;5087785;27;20310;-64
2024/01/03 13:59:56;;;;;;;;;;;9.50;99.90;;;;;;5087237;28;20339;-64
2024/01/03 14:02:22;;;;;;;;;;;9.50;99.90;;;;;;5075042;28;19928;-64
2024/01/03 14:04:47;;;;;;;;;;;9.50;99.90;;;;;;5082101;27;20031;-64
2024/01/03 14:07:13;;;;;;;;;;;9.50;99.90;;;;;;5078181;27;20305;-64
2024/01/03 14:09:42;;;;;;;;;;;9.40;99.90;;;;;;5092511;27;20019;-64
2024/01/03 14:12:08;;;;;;;;;;;9.40;99.90;;;;;;5090400;27;19988;-64
2024/01/03 14:14:36;;;;;;;;;;;9.40;99.90;;;;;;5070343;28;19952;-64
2024/01/03 14:17:04;;;;;;;;;;;9.40;99.90;;;;;;5108506;27;20795;-64
2024/01/03 14:19:30;;;;;;;;;;;9.40;99.90;;;;;;5089777;28;20642;-64
2024/01/03 14:21:59;;;;;;;;;;;9.30;99.90;;;;;;5091348;28;20444;-64
2024/01/03 14:24:25;;;;;;;;;;;9.30;99.90;;;;;;5072374;28;19946;-64
2024/01/03 14:26:50;;;;;;;;;;;9.30;99.90;;;;;;5088050;27;19928;-64